createdAt,value
2018-05-10T00:00:32.278Z,8.70
2018-05-10T00:01:32.270Z,8.10
2018-05-10T00:02:32.257Z,8.60
2018-05-10T00:03:32.243Z,8.70
2018-05-10T00:04:32.238Z,9.10
2018-05-10T00:05:32.221Z,8.60
2018-05-10T00:06:32.219Z,8.50
2018-05-10T00:07:32.204Z,8.60
2018-05-10T00:08:32.190Z,8.20
2018-05-10T00:09:32.179Z,7.80
2018-05-10T00:10:32.172Z,8.50
2018-05-10T00:11:32.159Z,8.80
2018-05-10T00:12:32.151Z,9.20
2018-05-10T00:13:32.138Z,8.70
2018-05-10T00:14:32.131Z,9.00
2018-05-10T00:15:32.119Z,9.00
2018-05-10T00:16:32.109Z,9.00
2018-05-10T00:17:32.099Z,8.80
2018-05-10T00:18:32.085Z,9.60
2018-05-10T00:19:32.075Z,8.50
2018-05-10T00:20:32.070Z,9.40
2018-05-10T00:21:32.055Z,9.00
2018-05-10T00:22:32.044Z,8.60
2018-05-10T00:23:32.038Z,8.70
2018-05-10T00:24:32.027Z,9.60
2018-05-10T00:25:32.016Z,9.30
2018-05-10T00:26:32.005Z,9.60
2018-05-10T00:27:32.008Z,8.90
2018-05-10T00:28:31.979Z,8.50
2018-05-10T00:29:31.977Z,8.80
2018-05-10T00:30:31.962Z,8.90
2018-05-10T00:31:31.949Z,9.40
2018-05-10T00:32:31.938Z,9.70
2018-05-10T00:33:31.929Z,9.00
2018-05-10T00:34:31.920Z,10.60
2018-05-10T00:35:31.908Z,10.20
2018-05-10T00:36:31.898Z,9.80
2018-05-10T00:37:31.892Z,9.90
2018-05-10T00:38:31.876Z,10.00
2018-05-10T00:39:31.867Z,9.50
2018-05-10T00:40:31.859Z,10.60
2018-05-10T00:41:31.844Z,11.40
2018-05-10T00:42:31.836Z,11.30
2018-05-10T00:43:31.830Z,10.90
2018-05-10T00:44:31.815Z,11.40
2018-05-10T00:45:31.814Z,11.20
2018-05-10T00:46:31.792Z,11.10
2018-05-10T00:47:31.784Z,11.20
2018-05-10T00:48:31.775Z,10.60
2018-05-10T00:49:31.759Z,10.50
2018-05-10T00:50:31.754Z,10.90
2018-05-10T00:51:31.741Z,10.60
2018-05-10T00:52:31.731Z,11.30
2018-05-10T00:53:31.721Z,10.90
2018-05-10T00:54:31.712Z,10.70
2018-05-10T00:55:31.779Z,10.60
2018-05-10T00:56:31.690Z,10.30
2018-05-10T00:57:31.727Z,11.00
2018-05-10T00:58:31.679Z,11.40
2018-05-10T00:59:31.665Z,11.20
2018-05-10T01:00:31.641Z,10.90
2018-05-10T01:01:31.645Z,11.10
2018-05-10T01:02:31.624Z,10.80
2018-05-10T01:03:31.612Z,10.60
2018-05-10T01:04:31.599Z,11.20
2018-05-10T01:05:31.590Z,10.30
2018-05-10T01:06:31.579Z,11.10
2018-05-10T01:07:31.571Z,11.70
2018-05-10T01:08:31.575Z,10.80
2018-05-10T01:09:31.557Z,10.80
2018-05-10T01:10:31.535Z,11.00
2018-05-10T01:11:31.529Z,11.70
2018-05-10T01:12:31.513Z,11.30
2018-05-10T01:13:31.501Z,11.70
2018-05-10T01:14:31.491Z,11.00
2018-05-10T01:15:31.497Z,11.40
2018-05-10T01:16:31.468Z,10.80
2018-05-10T01:17:31.461Z,10.90
2018-05-10T01:18:31.450Z,11.30
2018-05-10T01:19:31.443Z,10.70
2018-05-10T01:20:31.446Z,11.00
2018-05-10T01:21:31.420Z,10.80
2018-05-10T01:22:31.403Z,11.60
2018-05-10T01:23:31.472Z,11.30
2018-05-10T01:24:31.383Z,10.80
2018-05-10T01:25:31.479Z,10.90
2018-05-10T01:26:31.364Z,10.70
2018-05-10T01:27:31.452Z,10.90
2018-05-10T01:28:31.337Z,10.50
2018-05-10T01:29:31.330Z,12.00
2018-05-10T01:30:31.322Z,11.20
2018-05-10T01:31:31.336Z,11.60
2018-05-10T01:32:31.294Z,11.40
2018-05-10T01:33:31.298Z,11.10
2018-05-10T01:34:31.275Z,11.70
2018-05-10T01:35:31.313Z,11.30
2018-05-10T01:36:31.249Z,11.70
2018-05-10T01:37:31.240Z,11.60
2018-05-10T01:38:31.231Z,12.20
2018-05-10T01:39:31.220Z,11.50
2018-05-10T01:40:31.209Z,12.10
2018-05-10T01:41:31.247Z,12.10
2018-05-10T01:42:31.186Z,12.00
2018-05-10T01:43:31.224Z,12.30
2018-05-10T01:44:31.168Z,12.40
2018-05-10T01:45:31.158Z,12.30
2018-05-10T01:46:31.145Z,12.40
2018-05-10T01:47:31.131Z,12.70
2018-05-10T01:48:31.121Z,12.60
2018-05-10T01:49:31.112Z,12.40
2018-05-10T01:50:31.107Z,12.80
2018-05-10T01:51:31.091Z,11.60
2018-05-10T01:52:31.075Z,13.50
2018-05-10T01:53:31.065Z,13.60
2018-05-10T01:54:31.052Z,13.20
2018-05-10T01:55:31.045Z,13.20
2018-05-10T01:56:31.031Z,13.20
2018-05-10T01:57:31.020Z,13.30
2018-05-10T01:58:31.012Z,12.20
2018-05-10T01:59:30.996Z,12.80
2018-05-10T02:00:30.984Z,12.90
2018-05-10T02:01:30.981Z,13.00
2018-05-10T02:02:30.967Z,12.60
2018-05-10T02:03:31.009Z,12.40
2018-05-10T02:04:30.940Z,12.80
2018-05-10T02:05:30.928Z,12.40
2018-05-10T02:06:30.929Z,12.30
2018-05-10T02:07:30.910Z,11.80
2018-05-10T02:08:30.903Z,12.60
2018-05-10T02:09:30.886Z,12.40
2018-05-10T02:10:30.875Z,12.90
2018-05-10T02:11:30.870Z,12.60
2018-05-10T02:12:30.859Z,12.20
2018-05-10T02:13:30.839Z,11.90
2018-05-10T02:14:30.828Z,13.20
2018-05-10T02:15:30.817Z,12.50
2018-05-10T02:16:30.811Z,12.20
2018-05-10T02:17:30.799Z,12.00
2018-05-10T02:18:30.783Z,11.10
2018-05-10T02:19:30.773Z,12.00
2018-05-10T02:20:30.773Z,11.60
2018-05-10T02:21:30.748Z,11.80
2018-05-10T02:22:30.747Z,12.10
2018-05-10T02:23:30.729Z,12.10
2018-05-10T02:24:30.719Z,12.20
2018-05-10T02:25:30.710Z,11.60
2018-05-10T02:26:30.699Z,12.20
2018-05-10T02:27:30.687Z,12.80
2018-05-10T02:28:30.671Z,12.90
2018-05-10T02:29:30.662Z,13.50
2018-05-10T02:30:30.652Z,13.90
2018-05-10T02:31:30.641Z,13.00
2018-05-10T02:32:30.631Z,13.40
2018-05-10T02:33:30.616Z,12.90
2018-05-10T02:34:30.614Z,12.30
2018-05-10T02:35:30.606Z,12.50
2018-05-10T02:36:30.783Z,13.20
2018-05-10T02:37:30.571Z,13.20
2018-05-10T02:38:30.562Z,13.40
2018-05-10T02:39:30.550Z,13.00
2018-05-10T02:40:30.536Z,12.60
2018-05-10T02:41:30.530Z,13.00
2018-05-10T02:42:30.523Z,13.70
2018-05-10T02:43:30.510Z,13.60
2018-05-10T02:44:30.490Z,14.50
2018-05-10T02:45:30.481Z,14.90
2018-05-10T02:46:30.476Z,14.60
2018-05-10T02:47:30.456Z,14.50
2018-05-10T02:48:30.444Z,14.10
2018-05-10T02:49:30.440Z,14.80
2018-05-10T02:50:30.431Z,14.20
2018-05-10T02:51:30.415Z,14.40
2018-05-10T02:52:30.399Z,14.80
2018-05-10T02:53:30.392Z,13.90
2018-05-10T02:54:30.378Z,14.20
2018-05-10T02:55:30.369Z,14.60
2018-05-10T02:56:30.351Z,16.30
2018-05-10T02:57:30.341Z,18.70
2018-05-10T02:58:30.331Z,22.40
2018-05-10T02:59:30.330Z,23.80
2018-05-10T03:00:30.309Z,24.60
2018-05-10T03:01:30.299Z,25.30
2018-05-10T03:02:30.295Z,26.00
2018-05-10T03:03:30.270Z,30.30
2018-05-10T03:04:30.269Z,31.30
2018-05-10T03:05:30.250Z,31.00
2018-05-10T03:06:30.241Z,30.10
2018-05-10T03:07:30.231Z,30.40
2018-05-10T03:08:30.210Z,31.10
2018-05-10T03:09:30.202Z,33.00
2018-05-10T03:10:30.190Z,33.20
2018-05-10T03:11:30.178Z,36.20
2018-05-10T03:12:30.204Z,34.00
2018-05-10T03:13:30.218Z,36.20
2018-05-10T03:14:30.139Z,35.00
2018-05-10T03:15:30.129Z,37.30
2018-05-10T03:16:30.120Z,36.10
2018-05-10T03:17:30.109Z,37.90
2018-05-10T03:18:30.095Z,39.10
2018-05-10T03:19:30.090Z,39.50
2018-05-10T03:20:30.070Z,39.10
2018-05-10T03:21:30.059Z,39.30
2018-05-10T03:22:30.049Z,42.20
2018-05-10T03:23:30.040Z,44.10
2018-05-10T03:24:30.022Z,47.40
2018-05-10T03:25:30.019Z,48.20
2018-05-10T03:26:30.003Z,51.10
2018-05-10T03:27:29.992Z,53.10
2018-05-10T03:28:29.977Z,53.60
2018-05-10T03:29:30.120Z,53.90
2018-05-10T03:30:29.960Z,55.00
2018-05-10T03:31:30.000Z,53.90
2018-05-10T03:32:29.929Z,55.40
2018-05-10T03:33:30.020Z,56.50
2018-05-10T03:34:29.909Z,57.60
2018-05-10T03:35:29.899Z,60.70
2018-05-10T03:36:29.881Z,60.60
2018-05-10T03:37:29.881Z,61.40
2018-05-10T03:38:29.857Z,61.30
2018-05-10T03:39:29.895Z,63.80
2018-05-10T03:40:29.874Z,63.70
2018-05-10T03:41:29.817Z,66.50
2018-05-10T03:42:29.812Z,67.70
2018-05-10T03:43:29.799Z,68.20
2018-05-10T03:44:29.784Z,73.60
2018-05-10T03:45:29.768Z,73.50
2018-05-10T03:46:29.798Z,73.50
2018-05-10T03:47:29.744Z,77.70
2018-05-10T03:48:29.733Z,77.80
2018-05-10T03:49:29.724Z,80.50
2018-05-10T03:50:29.710Z,80.70
2018-05-10T03:51:29.704Z,81.20
2018-05-10T03:52:29.694Z,80.80
2018-05-10T03:53:29.679Z,84.90
2018-05-10T03:54:29.660Z,86.00
2018-05-10T03:55:29.648Z,87.70
2018-05-10T03:56:29.638Z,87.40
2018-05-10T03:57:29.636Z,87.90
2018-05-10T03:58:29.620Z,86.10
2018-05-10T03:59:29.599Z,89.10
2018-05-10T04:00:29.588Z,88.90
2018-05-10T04:01:29.580Z,89.10
2018-05-10T04:02:29.567Z,91.00
2018-05-10T04:03:29.556Z,92.90
2018-05-10T04:04:29.540Z,93.60
2018-05-10T04:05:29.529Z,94.50
2018-05-10T04:06:29.520Z,90.90
2018-05-10T04:07:29.504Z,92.00
2018-05-10T04:08:29.490Z,95.30
2018-05-10T04:09:29.479Z,94.50
2018-05-10T04:10:29.463Z,96.10
2018-05-10T04:11:29.458Z,95.90
2018-05-10T04:12:29.444Z,94.10
2018-05-10T04:13:29.431Z,95.00
2018-05-10T04:14:29.419Z,94.40
2018-05-10T04:15:29.438Z,93.60
2018-05-10T04:16:29.393Z,95.10
2018-05-10T04:17:29.388Z,94.40
2018-05-10T04:18:29.374Z,93.70
2018-05-10T04:19:29.360Z,90.20
2018-05-10T04:20:29.352Z,93.00
2018-05-10T04:21:29.344Z,94.80
2018-05-10T04:22:29.321Z,94.50
2018-05-10T04:23:29.312Z,89.30
2018-05-10T04:24:29.300Z,92.40
2018-05-10T04:25:29.291Z,91.40
2018-05-10T04:26:29.274Z,91.00
2018-05-10T04:27:29.262Z,88.90
2018-05-10T04:28:29.250Z,88.90
2018-05-10T04:29:29.242Z,90.30
2018-05-10T04:30:29.244Z,91.40
2018-05-10T04:31:29.211Z,87.70
2018-05-10T04:32:29.202Z,86.60
2018-05-10T04:33:29.194Z,85.60
2018-05-10T04:34:29.181Z,84.30
2018-05-10T04:35:29.163Z,84.70
2018-05-10T04:36:29.153Z,86.00
2018-05-10T04:37:29.140Z,79.70
2018-05-10T04:38:29.134Z,80.30
2018-05-10T04:39:29.121Z,83.10
2018-05-10T04:40:29.107Z,79.90
2018-05-10T04:41:29.091Z,79.60
2018-05-10T04:42:29.082Z,78.90
2018-05-10T04:43:29.066Z,78.70
2018-05-10T04:44:29.057Z,76.80
2018-05-10T04:45:29.051Z,74.40
2018-05-10T04:46:29.037Z,75.30
2018-05-10T04:47:29.022Z,73.40
2018-05-10T04:48:29.006Z,74.80
2018-05-10T04:49:28.990Z,73.90
2018-05-10T04:50:28.982Z,72.20
2018-05-10T04:51:28.972Z,70.80
2018-05-10T04:52:28.958Z,70.90
2018-05-10T04:53:28.948Z,70.50
2018-05-10T04:54:28.930Z,67.50
2018-05-10T04:55:28.920Z,67.50
2018-05-10T04:56:28.910Z,63.50
2018-05-10T04:57:28.905Z,63.00
2018-05-10T04:58:28.883Z,62.40
2018-05-10T04:59:28.870Z,63.40
2018-05-10T05:00:28.861Z,63.00
2018-05-10T05:01:28.853Z,62.30
2018-05-10T05:02:28.840Z,62.30
2018-05-10T05:03:28.876Z,59.70
2018-05-10T05:04:28.814Z,63.40
2018-05-10T05:05:28.810Z,59.90
2018-05-10T05:06:28.789Z,62.70
2018-05-10T05:07:28.774Z,60.10
2018-05-10T05:08:28.761Z,58.70
2018-05-10T05:09:28.753Z,59.60
2018-05-10T05:10:28.740Z,55.30
2018-05-10T05:11:28.727Z,56.80
2018-05-10T05:12:28.722Z,54.80
2018-05-10T05:13:28.701Z,56.70
2018-05-10T05:14:28.701Z,56.10
2018-05-10T05:15:28.681Z,56.20
2018-05-10T05:16:28.664Z,58.10
2018-05-10T05:17:28.654Z,58.70
2018-05-10T05:18:28.643Z,55.90
2018-05-10T05:19:28.630Z,54.60
2018-05-10T05:20:28.621Z,55.00
2018-05-10T05:21:28.608Z,52.80
2018-05-10T05:22:28.590Z,53.60
2018-05-10T05:23:28.580Z,53.70
2018-05-10T05:24:28.568Z,54.20
2018-05-10T05:25:28.560Z,53.60
2018-05-10T05:26:28.551Z,52.90
2018-05-10T05:27:28.529Z,53.40
2018-05-10T05:28:28.518Z,49.20
2018-05-10T05:29:28.508Z,50.40
2018-05-10T05:30:28.494Z,49.30
2018-05-10T05:31:28.480Z,49.10
2018-05-10T05:32:28.470Z,49.50
2018-05-10T05:33:28.461Z,49.00
2018-05-10T05:34:28.446Z,49.20
2018-05-10T05:35:28.529Z,48.00
2018-05-10T05:36:28.419Z,47.80
2018-05-10T05:37:28.412Z,48.60
2018-05-10T05:38:28.399Z,47.80
2018-05-10T05:39:28.386Z,48.60
2018-05-10T05:40:28.369Z,46.80
2018-05-10T05:41:28.384Z,47.50
2018-05-10T05:42:28.360Z,48.30
2018-05-10T05:43:28.524Z,48.30
2018-05-10T05:44:28.321Z,46.00
2018-05-10T05:45:28.310Z,46.70
2018-05-10T05:46:28.299Z,46.70
2018-05-10T05:47:28.289Z,47.30
2018-05-10T05:48:28.269Z,47.60
2018-05-10T05:49:28.310Z,50.00
2018-05-10T05:50:28.248Z,46.60
2018-05-10T05:51:28.337Z,46.70
2018-05-10T05:52:28.223Z,47.00
2018-05-10T05:53:28.215Z,47.10
2018-05-10T05:54:28.196Z,48.30
2018-05-10T05:55:28.193Z,47.80
2018-05-10T05:56:28.171Z,47.90
2018-05-10T05:57:28.159Z,49.10
2018-05-10T05:58:28.152Z,48.30
2018-05-10T05:59:28.133Z,49.60
2018-05-10T06:00:28.123Z,49.10
2018-05-10T06:01:28.110Z,52.00
2018-05-10T06:02:28.097Z,50.10
2018-05-10T06:03:28.087Z,49.60
2018-05-10T06:04:28.070Z,49.70
2018-05-10T06:05:28.059Z,49.80
2018-05-10T06:06:28.054Z,50.10
2018-05-10T06:07:28.039Z,49.30
2018-05-10T06:08:28.021Z,48.80
2018-05-10T06:09:28.009Z,49.40
2018-05-10T06:10:28.003Z,48.50
2018-05-10T06:11:27.983Z,47.40
2018-05-10T06:12:27.970Z,47.70
2018-05-10T06:13:27.960Z,48.10
2018-05-10T06:14:27.972Z,48.70
2018-05-10T06:15:27.949Z,47.90
2018-05-10T06:16:27.919Z,45.70
2018-05-10T06:17:27.908Z,47.70
2018-05-10T06:18:27.947Z,45.60
2018-05-10T06:19:27.880Z,46.70
2018-05-10T06:20:27.867Z,41.70
2018-05-10T06:21:27.858Z,44.10
2018-05-10T06:22:27.849Z,44.10
2018-05-10T06:23:27.830Z,44.50
2018-05-10T06:24:27.821Z,42.10
2018-05-10T06:25:27.809Z,42.00
2018-05-10T06:26:27.802Z,41.90
2018-05-10T06:27:27.787Z,41.80
2018-05-10T06:28:27.773Z,42.20
2018-05-10T06:29:27.754Z,43.60
2018-05-10T06:30:27.749Z,42.20
2018-05-10T06:31:27.741Z,44.00
2018-05-10T06:32:27.721Z,43.20
2018-05-10T06:33:27.710Z,41.60
2018-05-10T06:34:27.699Z,42.20
2018-05-10T06:35:27.684Z,41.30
2018-05-10T06:36:27.681Z,41.50
2018-05-10T06:37:27.659Z,39.40
2018-05-10T06:38:27.656Z,36.60
2018-05-10T06:39:27.641Z,35.20
2018-05-10T06:40:27.630Z,35.20
2018-05-10T06:41:27.623Z,35.90
2018-05-10T06:42:27.602Z,36.20
2018-05-10T06:43:27.591Z,37.50
2018-05-10T06:44:27.586Z,38.40
2018-05-10T06:45:27.570Z,41.30
2018-05-10T06:46:27.559Z,38.20
2018-05-10T06:47:27.545Z,38.80
2018-05-10T06:48:27.541Z,39.60
2018-05-10T06:49:27.527Z,37.60
2018-05-10T06:50:27.513Z,36.20
2018-05-10T06:51:27.505Z,37.80
2018-05-10T06:52:27.491Z,36.50
2018-05-10T06:53:27.477Z,36.50
2018-05-10T06:54:27.472Z,36.30
2018-05-10T06:55:27.468Z,36.30
2018-05-10T06:56:27.448Z,36.40
2018-05-10T06:57:27.453Z,33.80
2018-05-10T06:58:27.429Z,33.60
2018-05-10T06:59:27.419Z,34.90
2018-05-10T07:00:27.413Z,34.30
2018-05-10T07:01:27.391Z,34.50
2018-05-10T07:02:27.389Z,33.40
2018-05-10T07:03:27.455Z,32.40
2018-05-10T07:04:27.360Z,33.80
2018-05-10T07:05:27.352Z,34.70
2018-05-10T07:06:27.344Z,34.10
2018-05-10T07:07:27.329Z,33.10
2018-05-10T07:08:27.315Z,32.50
2018-05-10T07:09:27.479Z,32.30
2018-05-10T07:10:27.296Z,31.40
2018-05-10T07:11:27.292Z,31.60
2018-05-10T07:12:27.274Z,30.30
2018-05-10T07:13:27.273Z,30.60
2018-05-10T07:14:27.254Z,30.60
2018-05-10T07:15:27.246Z,31.30
2018-05-10T07:16:27.240Z,30.20
2018-05-10T07:17:27.223Z,29.90
2018-05-10T07:18:27.216Z,29.20
2018-05-10T07:19:27.200Z,28.70
2018-05-10T07:20:27.191Z,29.30
2018-05-10T07:21:27.181Z,30.00
2018-05-10T07:22:27.172Z,28.20
2018-05-10T07:23:27.190Z,29.20
2018-05-10T07:24:27.154Z,28.40
2018-05-10T07:25:27.250Z,27.90
2018-05-10T07:26:27.132Z,26.60
2018-05-10T07:27:27.120Z,27.00
2018-05-10T07:28:27.110Z,26.20
2018-05-10T07:29:27.099Z,25.90
2018-05-10T07:30:27.091Z,25.70
2018-05-10T07:31:27.080Z,25.10
2018-05-10T07:32:27.066Z,25.50
2018-05-10T07:33:27.059Z,25.10
2018-05-10T07:34:27.045Z,25.70
2018-05-10T07:35:27.037Z,24.90
2018-05-10T07:36:27.038Z,26.00
2018-05-10T07:37:27.023Z,26.00
2018-05-10T07:38:27.006Z,25.60
2018-05-10T07:39:26.997Z,26.50
2018-05-10T07:40:26.988Z,26.90
2018-05-10T07:41:26.984Z,27.90
2018-05-10T07:42:26.962Z,28.30
2018-05-10T07:43:26.959Z,29.60
2018-05-10T07:44:26.943Z,28.20
2018-05-10T07:45:26.935Z,28.60
2018-05-10T07:46:26.921Z,29.60
2018-05-10T07:47:26.990Z,29.80
2018-05-10T07:48:26.903Z,30.80
2018-05-10T07:49:26.897Z,31.40
2018-05-10T07:50:26.879Z,31.80
2018-05-10T07:51:26.868Z,30.70
2018-05-10T07:52:26.859Z,32.00
2018-05-10T07:53:26.851Z,31.90
2018-05-10T07:54:26.851Z,33.50
2018-05-10T07:55:26.933Z,32.10
2018-05-10T07:56:26.818Z,30.80
2018-05-10T07:57:26.878Z,32.20
2018-05-10T07:58:26.795Z,31.70
2018-05-10T07:59:26.842Z,31.50
2018-05-10T08:00:26.778Z,31.20
2018-05-10T08:01:26.777Z,31.80
2018-05-10T08:02:26.756Z,31.10
2018-05-10T08:03:26.754Z,31.30
2018-05-10T08:04:26.738Z,31.00
2018-05-10T08:05:26.742Z,30.80
2018-05-10T08:06:26.721Z,31.20
2018-05-10T08:07:26.710Z,30.40
2018-05-10T08:08:26.706Z,30.40
2018-05-10T08:09:26.694Z,30.80
2018-05-10T08:10:26.687Z,31.10
2018-05-10T08:11:26.673Z,30.70
2018-05-10T08:12:26.664Z,31.80
2018-05-10T08:13:26.662Z,32.70
2018-05-10T08:14:26.650Z,31.30
2018-05-10T08:15:26.635Z,29.70
2018-05-10T08:16:26.640Z,32.60
2018-05-10T08:17:26.616Z,29.70
2018-05-10T08:18:26.611Z,30.80
2018-05-10T08:19:26.601Z,31.20
2018-05-10T08:20:26.587Z,30.70
2018-05-10T08:21:26.581Z,30.80
2018-05-10T08:22:26.572Z,31.10
2018-05-10T08:23:26.561Z,28.80
2018-05-10T08:24:26.548Z,30.50
2018-05-10T08:25:26.543Z,30.40
2018-05-10T08:26:26.531Z,30.80
2018-05-10T08:27:26.522Z,30.10
2018-05-10T08:28:26.512Z,29.90
2018-05-10T08:29:26.511Z,29.60
2018-05-10T08:30:26.499Z,29.20
2018-05-10T08:31:26.485Z,30.10
2018-05-10T08:32:26.476Z,27.60
2018-05-10T08:33:26.465Z,29.10
2018-05-10T08:34:26.469Z,28.30
2018-05-10T08:35:26.448Z,26.90
2018-05-10T08:36:26.513Z,27.20
2018-05-10T08:37:26.434Z,25.90
2018-05-10T08:38:26.427Z,27.40
2018-05-10T08:39:26.409Z,26.80
2018-05-10T08:40:26.401Z,26.00
2018-05-10T08:41:26.404Z,25.50
2018-05-10T08:42:26.382Z,24.70
2018-05-10T08:43:26.374Z,23.70
2018-05-10T08:44:26.371Z,24.10
2018-05-10T08:45:26.361Z,23.50
2018-05-10T08:46:26.348Z,22.50
2018-05-10T08:47:26.353Z,21.20
2018-05-10T08:48:26.333Z,21.10
2018-05-10T08:49:26.326Z,20.60
2018-05-10T08:50:26.319Z,20.50
2018-05-10T08:51:26.322Z,19.10
2018-05-10T08:52:26.303Z,18.90
2018-05-10T08:53:26.299Z,19.60
2018-05-10T08:54:26.291Z,18.90
2018-05-10T08:55:26.284Z,20.00
2018-05-10T08:56:26.278Z,18.70
2018-05-10T08:57:26.272Z,16.80
2018-05-10T08:58:26.261Z,18.60
2018-05-10T08:59:26.265Z,16.90
2018-05-10T09:00:26.251Z,18.30
2018-05-10T09:01:26.243Z,16.80
2018-05-10T09:02:26.233Z,17.10
2018-05-10T09:03:26.234Z,16.50
2018-05-10T09:04:26.231Z,16.90
2018-05-10T09:05:26.210Z,15.60
2018-05-10T09:06:26.214Z,13.90
2018-05-10T09:07:26.201Z,13.80
2018-05-10T09:08:26.191Z,12.80
2018-05-10T09:09:26.185Z,12.60
2018-05-10T09:10:26.180Z,12.00
2018-05-10T09:11:26.173Z,12.80
2018-05-10T09:12:26.171Z,13.20
2018-05-10T09:13:26.164Z,18.90
2018-05-10T09:14:26.164Z,12.40
2018-05-10T09:15:26.151Z,11.90
2018-05-10T09:16:26.148Z,10.50
2018-05-10T09:17:26.144Z,11.60
2018-05-10T09:18:26.132Z,11.90
2018-05-10T09:19:26.130Z,17.20
2018-05-10T09:20:26.131Z,12.70
2018-05-10T09:21:26.110Z,12.70
2018-05-10T09:22:26.118Z,15.50
2018-05-10T09:23:26.103Z,12.60
2018-05-10T09:24:26.107Z,9.30
2018-05-10T09:25:26.140Z,10.10
2018-05-10T09:26:26.083Z,9.80
2018-05-10T09:27:26.129Z,9.90
2018-05-10T09:28:26.082Z,13.60
2018-05-10T09:29:26.094Z,13.70
2018-05-10T09:30:26.063Z,11.60
2018-05-10T09:31:26.048Z,11.70
2018-05-10T09:32:26.041Z,10.80
2018-05-10T09:33:26.047Z,12.90
2018-05-10T09:34:26.040Z,11.30
2018-05-10T09:35:26.022Z,11.20
2018-05-10T09:36:26.012Z,10.50
2018-05-10T09:37:26.010Z,12.00
2018-05-10T09:38:25.998Z,11.20
2018-05-10T09:39:26.134Z,13.00
2018-05-10T09:40:25.982Z,11.80
2018-05-10T09:41:25.975Z,12.90
2018-05-10T09:42:25.975Z,13.00
2018-05-10T09:43:25.962Z,12.80
2018-05-10T09:44:25.951Z,12.50
2018-05-10T09:45:25.939Z,11.80
2018-05-10T09:46:25.930Z,12.60
2018-05-10T09:47:25.928Z,12.30
2018-05-10T09:48:25.915Z,12.50
2018-05-10T09:49:25.916Z,12.50
2018-05-10T09:50:25.901Z,12.00
2018-05-10T09:51:25.890Z,12.20
2018-05-10T09:52:25.879Z,12.50
2018-05-10T09:53:25.870Z,12.70
2018-05-10T09:54:25.865Z,12.50
2018-05-10T09:55:25.862Z,12.50
2018-05-10T09:56:25.851Z,12.80
2018-05-10T09:57:25.831Z,12.10
2018-05-10T09:58:25.826Z,12.80
2018-05-10T09:59:25.809Z,12.50
2018-05-10T10:00:25.805Z,12.30
2018-05-10T10:01:25.792Z,11.80
2018-05-10T10:02:25.850Z,12.60
2018-05-10T10:03:25.780Z,12.00
2018-05-10T10:04:25.772Z,12.20
2018-05-10T10:05:25.764Z,12.90
2018-05-10T10:06:25.912Z,11.70
2018-05-10T10:07:25.733Z,12.00
2018-05-10T10:08:25.820Z,11.70
2018-05-10T10:09:25.713Z,12.10
2018-05-10T10:10:25.801Z,12.00
2018-05-10T10:11:25.695Z,12.20
2018-05-10T10:12:25.691Z,14.70
2018-05-10T10:13:25.671Z,15.40
2018-05-10T10:14:25.761Z,14.20
2018-05-10T10:15:25.652Z,12.30
2018-05-10T10:16:25.643Z,13.30
2018-05-10T10:17:25.641Z,12.70
2018-05-10T10:18:25.633Z,12.10
2018-05-10T10:19:25.620Z,12.30
2018-05-10T10:20:25.603Z,12.70
2018-05-10T10:21:25.584Z,12.80
2018-05-10T10:22:25.578Z,13.10
2018-05-10T10:23:25.569Z,13.10
2018-05-10T10:24:25.555Z,13.00
2018-05-10T10:25:25.551Z,12.60
2018-05-10T10:26:25.536Z,13.90
2018-05-10T10:27:25.546Z,13.50
2018-05-10T10:28:25.521Z,14.00
2018-05-10T10:29:25.500Z,15.20
2018-05-10T10:30:25.489Z,15.30
2018-05-10T10:31:25.482Z,14.50
2018-05-10T10:32:25.483Z,15.60
2018-05-10T10:33:25.457Z,14.80
2018-05-10T10:34:25.516Z,14.70
2018-05-10T10:35:25.438Z,14.70
2018-05-10T10:36:25.431Z,16.00
2018-05-10T10:37:25.422Z,15.50
2018-05-10T10:38:25.414Z,15.70
2018-05-10T10:39:25.444Z,16.10
2018-05-10T10:40:25.383Z,15.90
2018-05-10T10:41:25.369Z,15.50
2018-05-10T10:42:25.369Z,15.70
2018-05-10T10:43:25.350Z,15.90
2018-05-10T10:44:25.358Z,16.80
2018-05-10T10:45:25.368Z,18.20
2018-05-10T10:46:25.322Z,18.70
2018-05-10T10:47:25.316Z,18.10
2018-05-10T10:48:25.309Z,18.90
2018-05-10T10:49:25.290Z,18.70
2018-05-10T10:50:25.273Z,18.70
2018-05-10T10:51:25.266Z,19.10
2018-05-10T10:52:25.250Z,19.00
2018-05-10T10:53:25.245Z,19.50
2018-05-10T10:54:25.230Z,19.10
2018-05-10T10:55:25.213Z,19.60
2018-05-10T10:56:25.212Z,19.70
2018-05-10T10:57:25.215Z,19.70
2018-05-10T10:58:25.199Z,19.40
2018-05-10T10:59:25.176Z,18.60
2018-05-10T11:00:25.162Z,19.60
2018-05-10T11:01:25.152Z,20.00
2018-05-10T11:02:25.142Z,18.70
2018-05-10T11:03:25.128Z,20.30
2018-05-10T11:04:25.121Z,20.00
2018-05-10T11:05:25.102Z,20.90
2018-05-10T11:06:25.089Z,20.30
2018-05-10T11:07:25.074Z,20.80
2018-05-10T11:08:25.073Z,20.40
2018-05-10T11:09:25.070Z,20.30
2018-05-10T11:10:25.051Z,20.90
2018-05-10T11:11:25.041Z,20.70
2018-05-10T11:12:25.023Z,20.00
2018-05-10T11:13:25.009Z,21.00
2018-05-10T11:14:25.001Z,21.20
2018-05-10T11:15:24.987Z,21.20
2018-05-10T11:16:24.971Z,20.90
2018-05-10T11:17:24.962Z,21.70
2018-05-10T11:18:24.956Z,22.30
2018-05-10T11:19:24.942Z,22.20
2018-05-10T11:20:24.933Z,21.60
2018-05-10T11:21:24.921Z,21.40
2018-05-10T11:22:24.900Z,22.00
2018-05-10T11:23:24.899Z,21.90
2018-05-10T11:24:24.878Z,21.60
2018-05-10T11:25:24.921Z,21.20
2018-05-10T11:26:24.866Z,21.10
2018-05-10T11:27:24.859Z,21.40
2018-05-10T11:28:24.831Z,19.80
2018-05-10T11:29:24.824Z,19.80
2018-05-10T11:30:24.828Z,20.00
2018-05-10T11:31:24.801Z,18.90
2018-05-10T11:32:24.781Z,19.30
2018-05-10T11:33:24.770Z,18.20
2018-05-10T11:34:24.761Z,18.80
2018-05-10T11:35:24.749Z,18.70
2018-05-10T11:36:24.735Z,17.30
2018-05-10T11:37:24.731Z,18.20
2018-05-10T11:38:24.712Z,18.30
2018-05-10T11:39:24.701Z,17.40
2018-05-10T11:40:24.693Z,17.80
2018-05-10T11:41:24.685Z,19.10
2018-05-10T11:42:24.701Z,19.00
2018-05-10T11:43:24.649Z,17.60
2018-05-10T11:44:24.642Z,17.70
2018-05-10T11:45:24.629Z,18.20
2018-05-10T11:46:24.621Z,19.20
2018-05-10T11:47:24.602Z,18.10
2018-05-10T11:48:24.592Z,18.20
2018-05-10T11:49:24.584Z,17.90
2018-05-10T11:50:24.566Z,17.80
2018-05-10T11:51:24.557Z,17.80
2018-05-10T11:52:24.553Z,17.60
2018-05-10T11:53:24.541Z,19.10
2018-05-10T11:54:24.529Z,17.90
2018-05-10T11:55:24.513Z,18.10
2018-05-10T11:56:24.492Z,17.20
2018-05-10T11:57:24.531Z,17.30
2018-05-10T11:58:24.468Z,18.00
2018-05-10T11:59:24.459Z,17.60
2018-05-10T12:00:24.468Z,17.80
2018-05-10T12:01:24.436Z,17.70
2018-05-10T12:02:24.432Z,17.30
2018-05-10T12:03:24.410Z,17.60
2018-05-10T12:04:24.399Z,17.80
2018-05-10T12:05:24.397Z,18.20
2018-05-10T12:06:24.377Z,17.50
2018-05-10T12:07:24.366Z,18.40
2018-05-10T12:08:24.393Z,17.50
2018-05-10T12:09:24.342Z,18.40
2018-05-10T12:10:24.420Z,17.50
2018-05-10T12:11:24.311Z,17.70
2018-05-10T12:12:24.404Z,17.30
2018-05-10T12:13:24.296Z,16.80
2018-05-10T12:14:24.330Z,17.90
2018-05-10T12:15:24.274Z,19.60
2018-05-10T12:16:24.250Z,18.20
2018-05-10T12:17:24.249Z,19.30
2018-05-10T12:18:24.334Z,18.90
2018-05-10T12:19:24.215Z,19.20
2018-05-10T12:20:24.246Z,18.60
2018-05-10T12:21:24.185Z,17.80
2018-05-10T12:22:24.175Z,17.20
2018-05-10T12:23:24.161Z,16.90
2018-05-10T12:24:24.150Z,15.40
2018-05-10T12:25:24.145Z,13.60
2018-05-10T12:26:24.124Z,12.00
2018-05-10T12:27:24.113Z,12.90
2018-05-10T12:28:24.113Z,13.10
2018-05-10T12:29:24.090Z,12.00
2018-05-10T12:30:24.176Z,12.20
2018-05-10T12:31:24.061Z,11.30
2018-05-10T12:32:24.055Z,10.50
2018-05-10T12:33:24.039Z,10.90
2018-05-10T12:34:24.029Z,10.90
2018-05-10T12:35:24.022Z,10.50
2018-05-10T12:36:23.999Z,10.10
2018-05-10T12:37:23.992Z,10.10
2018-05-10T12:38:23.981Z,10.20
2018-05-10T12:39:23.963Z,10.30
2018-05-10T12:40:23.955Z,9.50
2018-05-10T12:41:23.943Z,9.70
2018-05-10T12:42:23.934Z,9.90
2018-05-10T12:43:23.926Z,10.10
2018-05-10T12:44:23.905Z,10.50
2018-05-10T12:45:23.891Z,9.90
2018-05-10T12:46:23.877Z,10.20
2018-05-10T12:47:23.873Z,10.00
2018-05-10T12:48:23.851Z,10.00
2018-05-10T12:49:23.843Z,9.90
2018-05-10T12:50:23.841Z,9.60
2018-05-10T12:51:23.815Z,10.00
2018-05-10T12:52:23.802Z,9.60
2018-05-10T12:53:23.791Z,9.60
2018-05-10T12:54:23.781Z,10.40